Time;durP1;ratioP1;P1;durP2;ratioP2;P2;SDS_P1;SDS_P2;PMS_P1;PMS_P2;Temp;Humidity;BMP_temperature;BMP_pressure;BME280_temperature;BME280_humidity;BME280_pressure;Samples;Min_cycle;Max_cycle;Signal;HPM_P1;HPM_P2
2020/12/07 00:00:59;;;;;;;9.20;5.70;;;;;;;;;;5074727;28;20843;-69
2020/12/07 00:03:26;;;;;;;14.10;6.77;;;;;;;;;;5073336;28;20421;-69
2020/12/07 00:05:52;;;;;;;8.50;5.50;;;;;;;;;;5074468;28;20448;-69
2020/12/07 00:08:18;;;;;;;8.37;5.83;;;;;;;;;;5073951;28;20401;-69
2020/12/07 00:10:44;;;;;;;9.40;6.40;;;;;;;;;;5075593;28;20881;-70
2020/12/07 00:13:10;;;;;;;9.27;5.90;;;;;;;;;;5075052;28;20393;-69
2020/12/07 00:15:36;;;;;;;9.80;7.33;;;;;;;;;;5073242;28;20452;-69
2020/12/07 00:18:02;;;;;;;7.87;6.00;;;;;;;;;;5074461;28;20892;-69
2020/12/07 00:20:28;;;;;;;7.87;5.27;;;;;;;;;;5073510;28;20429;-69
2020/12/07 00:22:56;;;;;;;8.23;5.60;;;;;;;;;;5074389;28;20484;-69
2020/12/07 00:25:22;;;;;;;8.07;5.07;;;;;;;;;;5073411;28;20483;-69
2020/12/07 00:27:48;;;;;;;8.20;5.53;;;;;;;;;;5074253;28;20480;-69
2020/12/07 00:30:14;;;;;;;9.40;5.60;;;;;;;;;;5073437;28;20424;-70
2020/12/07 00:32:40;;;;;;;8.77;6.10;;;;;;;;;;5073241;28;20448;-70
2020/12/07 00:35:06;;;;;;;8.03;5.63;;;;;;;;;;5073269;28;20441;-69
2020/12/07 00:37:32;;;;;;;8.50;5.20;;;;;;;;;;5072003;28;20389;-70
2020/12/07 00:39:58;;;;;;;8.00;5.20;;;;;;;;;;5072314;28;20838;-69
2020/12/07 00:42:24;;;;;;;7.17;4.33;;;;;;;;;;5073800;28;20420;-69
2020/12/07 00:44:50;;;;;;;8.83;5.60;;;;;;;;;;5072773;28;20441;-69
2020/12/07 00:47:16;;;;;;;6.40;4.70;;;;;;;;;;5073866;28;20440;-69
2020/12/07 00:49:42;;;;;;;8.90;5.60;;;;;;;;;;5068828;28;20425;-69
2020/12/07 00:52:09;;;;;;;11.20;6.97;;;;;;;;;;5074071;28;20807;-69
2020/12/07 00:54:36;;;;;;;8.50;5.60;;;;;;;;;;5072058;28;20516;-70
2020/12/07 00:57:03;;;;;;;9.30;6.33;;;;;;;;;;5073661;28;20872;-69
2020/12/07 00:59:29;;;;;;;7.70;5.23;;;;;;;;;;5072368;28;20439;-69
2020/12/07 01:01:56;;;;;;;8.93;5.20;;;;;;;;;;5073492;28;20393;-69
2020/12/07 01:04:22;;;;;;;5.83;4.30;;;;;;;;;;5072562;28;20453;-69
2020/12/07 01:06:48;;;;;;;9.53;5.33;;;;;;;;;;5073318;28;20437;-70
2020/12/07 01:09:17;;;;;;;6.60;5.03;;;;;;;;;;5072643;28;20424;-69
2020/12/07 01:11:45;;;;;;;6.70;4.43;;;;;;;;;;5073310;28;20393;-69
2020/12/07 01:14:14;;;;;;;7.73;5.17;;;;;;;;;;5071180;28;20462;-70
2020/12/07 01:16:41;;;;;;;6.47;4.90;;;;;;;;;;5073355;28;20405;-69
2020/12/07 01:19:07;;;;;;;7.40;5.10;;;;;;;;;;5072156;28;20427;-69
2020/12/07 01:21:34;;;;;;;6.27;4.47;;;;;;;;;;5072143;28;20425;-69
2020/12/07 01:24:00;;;;;;;7.30;5.03;;;;;;;;;;5071306;28;20444;-70
2020/12/07 01:26:27;;;;;;;5.90;4.57;;;;;;;;;;5073288;28;20445;-69
2020/12/07 01:28:53;;;;;;;5.53;4.33;;;;;;;;;;5070833;28;20430;-70
2020/12/07 01:31:20;;;;;;;6.30;4.70;;;;;;;;;;5073046;28;20476;-69
2020/12/07 01:33:46;;;;;;;7.97;5.30;;;;;;;;;;5071932;28;20445;-70
2020/12/07 01:36:13;;;;;;;8.70;5.50;;;;;;;;;;5073115;28;20488;-69
2020/12/07 01:38:39;;;;;;;6.53;4.47;;;;;;;;;;5072168;28;20466;-68
2020/12/07 01:41:05;;;;;;;6.10;4.90;;;;;;;;;;5073002;28;20428;-70
2020/12/07 01:43:31;;;;;;;7.50;5.50;;;;;;;;;;5072797;28;20454;-69
2020/12/07 01:45:57;;;;;;;5.67;4.17;;;;;;;;;;5071817;28;20449;-69
2020/12/07 01:48:27;;;;;;;4.87;4.00;;;;;;;;;;5072955;28;20447;-69
2020/12/07 01:50:54;;;;;;;6.77;4.83;;;;;;;;;;5069752;28;20460;-69
2020/12/07 01:53:21;;;;;;;7.37;5.20;;;;;;;;;;5072572;28;20413;-69
2020/12/07 01:55:47;;;;;;;6.47;4.93;;;;;;;;;;5071961;28;20420;-69
2020/12/07 01:58:13;;;;;;;7.90;4.60;;;;;;;;;;5073265;28;20413;-69
2020/12/07 02:00:39;;;;;;;7.07;4.70;;;;;;;;;;5071964;28;20425;-69
2020/12/07 02:03:06;;;;;;;5.73;3.90;;;;;;;;;;5072687;28;20435;-70
2020/12/07 02:05:34;;;;;;;6.77;4.37;;;;;;;;;;5070631;28;20965;-69
2020/12/07 02:11:03;;;;;;;6.80;5.10;;;;;;;;;;5071826;28;20923;-69
2020/12/07 02:13:30;;;;;;;5.70;4.43;;;;;;;;;;5072651;28;20437;-69
2020/12/07 02:15:56;;;;;;;6.10;4.40;;;;;;;;;;5071962;28;20425;-69
2020/12/07 02:18:28;;;;;;;7.40;5.20;;;;;;;;;;5072339;28;20401;-68
2020/12/07 02:20:54;;;;;;;5.30;4.50;;;;;;;;;;5067366;28;20471;-69
2020/12/07 02:23:20;;;;;;;5.80;4.40;;;;;;;;;;5052960;28;20425;-69
2020/12/07 02:25:46;;;;;;;6.13;5.00;;;;;;;;;;5058658;28;20476;-69
2020/12/07 02:28:12;;;;;;;6.10;4.87;;;;;;;;;;5072950;28;20437;-69
2020/12/07 02:30:38;;;;;;;6.03;4.33;;;;;;;;;;5071865;28;20521;-70
2020/12/07 02:33:04;;;;;;;4.20;3.80;;;;;;;;;;5072428;28;20460;-69
2020/12/07 02:35:30;;;;;;;7.03;4.80;;;;;;;;;;5071405;28;20531;-69
2020/12/07 02:37:56;;;;;;;4.23;3.40;;;;;;;;;;5072469;28;20405;-71
2020/12/07 02:40:22;;;;;;;7.20;5.30;;;;;;;;;;5070568;28;20425;-70
2020/12/07 02:42:48;;;;;;;6.63;4.70;;;;;;;;;;5072518;28;20408;-69
2020/12/07 02:45:16;;;;;;;4.50;4.00;;;;;;;;;;5071734;28;20433;-70
2020/12/07 02:47:42;;;;;;;4.43;3.80;;;;;;;;;;5073001;28;20484;-69
2020/12/07 02:50:09;;;;;;;6.17;4.73;;;;;;;;;;5072174;28;20779;-70
2020/12/07 02:52:35;;;;;;;4.50;4.03;;;;;;;;;;5075313;28;20432;-69
2020/12/07 02:55:03;;;;;;;6.03;3.87;;;;;;;;;;5072579;28;20888;-69
2020/12/07 02:57:29;;;;;;;4.53;4.00;;;;;;;;;;5075225;28;20507;-69
2020/12/07 02:59:55;;;;;;;4.27;3.73;;;;;;;;;;5075906;28;20405;-69
2020/12/07 03:02:21;;;;;;;4.40;3.97;;;;;;;;;;5074828;28;20452;-69
2020/12/07 03:04:47;;;;;;;5.83;4.50;;;;;;;;;;5075834;28;20445;-69
2020/12/07 03:07:13;;;;;;;5.03;3.90;;;;;;;;;;5074804;28;20921;-69
2020/12/07 03:09:39;;;;;;;5.87;3.33;;;;;;;;;;5076487;28;20405;-69
2020/12/07 03:12:06;;;;;;;5.27;4.00;;;;;;;;;;5074929;28;20787;-69
2020/12/07 03:14:32;;;;;;;4.50;3.40;;;;;;;;;;5075847;28;20421;-69
2020/12/07 03:16:58;;;;;;;6.30;4.40;;;;;;;;;;5074826;28;20435;-69
2020/12/07 03:19:24;;;;;;;6.60;4.07;;;;;;;;;;5074583;28;20874;-69
2020/12/07 03:21:50;;;;;;;6.30;4.10;;;;;;;;;;5074611;28;20512;-69
2020/12/07 03:24:16;;;;;;;4.27;3.53;;;;;;;;;;5075447;28;20453;-69
2020/12/07 03:26:42;;;;;;;5.00;3.70;;;;;;;;;;5074418;28;20449;-69
2020/12/07 03:29:09;;;;;;;6.17;4.43;;;;;;;;;;5075505;28;20886;-69
2020/12/07 03:31:36;;;;;;;6.30;4.13;;;;;;;;;;5073201;28;20421;-70
2020/12/07 03:34:03;;;;;;;4.20;3.50;;;;;;;;;;5075459;28;20461;-69
2020/12/07 03:36:29;;;;;;;5.57;3.80;;;;;;;;;;5074123;28;20421;-70
2020/12/07 03:38:55;;;;;;;5.50;4.73;;;;;;;;;;5075262;28;20522;-69
2020/12/07 03:41:21;;;;;;;5.97;4.43;;;;;;;;;;5074280;28;20425;-69
2020/12/07 03:43:47;;;;;;;4.97;3.67;;;;;;;;;;5075401;28;20425;-70
2020/12/07 03:46:13;;;;;;;5.20;3.67;;;;;;;;;;5072720;28;20467;-70
2020/12/07 03:48:39;;;;;;;4.80;4.30;;;;;;;;;;5083538;22;20902;31
2020/12/07 03:51:06;;;;;;;4.90;3.97;;;;;;;;;;5100945;28;20454;-88
2020/12/07 03:53:33;;;;;;;4.40;3.80;;;;;;;;;;5114361;28;20932;-88
2020/12/07 03:55:59;;;;;;;5.40;4.30;;;;;;;;;;5112408;28;20411;-88
2020/12/07 03:58:25;;;;;;;5.40;4.10;;;;;;;;;;5115732;28;20415;-87
2020/12/07 04:00:51;;;;;;;4.83;3.70;;;;;;;;;;5116246;28;20395;-87
2020/12/07 04:03:17;;;;;;;4.90;3.67;;;;;;;;;;5114645;28;20502;-87
2020/12/07 04:05:50;;;;;;;7.17;5.33;;;;;;;;;;5117021;28;20439;-87
2020/12/07 04:08:16;;;;;;;6.00;4.37;;;;;;;;;;5112900;28;21003;-88
2020/12/07 04:10:42;;;;;;;5.73;4.80;;;;;;;;;;5112938;28;20917;-88
2020/12/07 04:13:08;;;;;;;4.93;3.83;;;;;;;;;;5113367;28;20550;-87
2020/12/07 04:15:34;;;;;;;4.87;3.80;;;;;;;;;;5116097;28;20499;-88
2020/12/07 04:18:00;;;;;;;6.33;3.73;;;;;;;;;;5114738;28;20434;-87
2020/12/07 04:20:26;;;;;;;6.03;4.03;;;;;;;;;;5115794;28;20419;-87
2020/12/07 04:22:52;;;;;;;5.07;3.67;;;;;;;;;;5114992;28;20435;-87
2020/12/07 04:25:18;;;;;;;5.83;4.27;;;;;;;;;;5115377;28;21013;-87
2020/12/07 04:27:44;;;;;;;4.10;3.33;;;;;;;;;;5092734;28;20808;-87
2020/12/07 04:30:10;;;;;;;3.77;3.27;;;;;;;;;;5094953;28;20434;-87
2020/12/07 04:32:36;;;;;;;4.43;2.57;;;;;;;;;;5107775;28;20449;-88
2020/12/07 04:35:03;;;;;;;4.30;3.30;;;;;;;;;;5115231;28;20868;-88
2020/12/07 04:37:29;;;;;;;4.17;2.83;;;;;;;;;;5114129;28;20434;-87
2020/12/07 04:39:55;;;;;;;4.57;3.30;;;;;;;;;;5114846;28;20454;-88
2020/12/07 04:42:22;;;;;;;3.60;2.90;;;;;;;;;;5114001;28;20435;-87
2020/12/07 04:44:48;;;;;;;4.43;3.30;;;;;;;;;;5114075;28;20978;-87
2020/12/07 04:47:16;;;;;;;4.60;3.77;;;;;;;;;;5114017;28;20546;-88
2020/12/07 04:49:43;;;;;;;4.30;3.47;;;;;;;;;;5114411;28;20443;-88
2020/12/07 04:52:09;;;;;;;4.37;3.10;;;;;;;;;;5113731;28;20423;-88
2020/12/07 04:54:37;;;;;;;2.87;2.57;;;;;;;;;;5112940;28;20408;-88
2020/12/07 04:57:05;;;;;;;3.27;2.77;;;;;;;;;;5110759;28;20450;-88
2020/12/07 04:59:32;;;;;;;4.47;3.20;;;;;;;;;;5096707;28;20431;-87
2020/12/07 05:01:58;;;;;;;2.80;2.50;;;;;;;;;;5113825;28;20492;-88
2020/12/07 05:04:24;;;;;;;4.50;3.47;;;;;;;;;;5115510;28;20457;-88
2020/12/07 05:06:57;;;;;;;3.70;2.97;;;;;;;;;;5113957;28;20987;-88
2020/12/07 05:09:25;;;;;;;3.90;3.07;;;;;;;;;;5115017;28;20419;-87
2020/12/07 05:11:51;;;;;;;5.80;4.17;;;;;;;;;;5113638;28;20506;-88
2020/12/07 05:14:17;;;;;;;4.80;3.00;;;;;;;;;;5114548;28;20537;-87
2020/12/07 05:16:44;;;;;;;4.03;2.80;;;;;;;;;;5113200;28;20488;-88
2020/12/07 05:19:10;;;;;;;6.90;3.83;;;;;;;;;;5112765;28;20443;-88
2020/12/07 05:21:38;;;;;;;3.80;2.63;;;;;;;;;;5113216;28;20454;-88
2020/12/07 05:24:05;;;;;;;4.90;3.97;;;;;;;;;;5114435;28;20498;-87
2020/12/07 05:26:34;;;;;;;3.50;3.20;;;;;;;;;;5113173;28;20946;-87
2020/12/07 05:29:05;;;;;;;4.23;2.80;;;;;;;;;;5115020;28;20788;-88
2020/12/07 05:31:33;;;;;;;5.40;3.70;;;;;;;;;;5112847;28;20451;-89
2020/12/07 05:33:59;;;;;;;3.10;2.70;;;;;;;;;;5114614;28;20414;-88
2020/12/07 05:36:25;;;;;;;3.87;3.10;;;;;;;;;;5113455;28;20471;-88
2020/12/07 05:38:51;;;;;;;3.87;3.00;;;;;;;;;;5114845;28;20473;-89
2020/12/07 05:41:17;;;;;;;3.77;2.90;;;;;;;;;;5099336;28;20411;-88
2020/12/07 05:43:48;;;;;;;5.13;2.80;;;;;;;;;;5119891;28;20440;-87
2020/12/07 05:46:14;;;;;;;2.90;2.37;;;;;;;;;;5115675;28;20455;-88
2020/12/07 05:48:43;;;;;;;3.60;3.03;;;;;;;;;;5094901;28;20443;-87
2020/12/07 05:51:09;;;;;;;4.80;3.13;;;;;;;;;;5095529;28;20492;-88
2020/12/07 05:53:36;;;;;;;4.27;3.57;;;;;;;;;;5113791;28;20430;-88
2020/12/07 05:56:03;;;;;;;3.27;2.37;;;;;;;;;;5114555;28;20479;-88
2020/12/07 05:58:30;;;;;;;4.73;3.10;;;;;;;;;;5108682;28;20443;-88
2020/12/07 06:00:58;;;;;;;4.07;3.10;;;;;;;;;;5096118;28;20825;-88
2020/12/07 06:03:25;;;;;;;5.73;3.60;;;;;;;;;;5113631;28;20435;-88
2020/12/07 06:05:51;;;;;;;5.80;3.57;;;;;;;;;;5114143;28;20843;-88
2020/12/07 06:08:30;;;;;;;4.57;3.17;;;;;;;;;;5128541;28;20439;-89
2020/12/07 06:11:00;;;;;;;4.63;2.53;;;;;;;;;;5138273;28;20376;-88
2020/12/07 06:13:27;;;;;;;3.97;2.60;;;;;;;;;;5137610;28;20434;-89
2020/12/07 06:15:55;;;;;;;4.77;3.47;;;;;;;;;;5137951;28;20403;-89
2020/12/07 06:18:23;;;;;;;4.33;3.10;;;;;;;;;;5120629;28;20411;-89
2020/12/07 06:20:53;;;;;;;3.67;2.83;;;;;;;;;;5115330;28;20403;-87
2020/12/07 06:23:19;;;;;;;4.37;3.03;;;;;;;;;;5114079;28;20955;-88
2020/12/07 06:25:45;;;;;;;2.90;2.23;;;;;;;;;;5114050;28;20474;-88
2020/12/07 06:28:11;;;;;;;4.70;3.73;;;;;;;;;;5112641;28;20450;-88
2020/12/07 06:30:38;;;;;;;4.37;2.50;;;;;;;;;;5116998;28;20419;-88
2020/12/07 06:33:05;;;;;;;3.80;2.87;;;;;;;;;;5117345;28;20427;-88
2020/12/07 06:35:31;;;;;;;6.13;3.77;;;;;;;;;;5117782;28;20930;-88
2020/12/07 06:38:01;;;;;;;3.60;2.77;;;;;;;;;;5116459;28;20430;-87
2020/12/07 06:40:29;;;;;;;7.03;3.03;;;;;;;;;;5118119;28;20415;-87
2020/12/07 06:42:56;;;;;;;5.07;3.90;;;;;;;;;;5116068;28;20509;-88
2020/12/07 06:45:32;;;;;;;4.93;2.83;;;;;;;;;;5099385;28;20494;-88
2020/12/07 06:48:09;;;;;;;5.27;3.77;;;;;;;;;;5117326;28;20422;-87
2020/12/07 06:50:39;;;;;;;4.10;3.10;;;;;;;;;;5117895;28;20426;-88
2020/12/07 06:53:21;;;;;;;5.60;3.67;;;;;;;;;;5117563;28;21014;-88
2020/12/07 06:55:47;;;;;;;4.73;4.00;;;;;;;;;;5095463;28;20471;-87
2020/12/07 06:58:29;;;;;;;7.17;4.40;;;;;;;;;;5108843;28;20435;-88
2020/12/07 07:00:55;;;;;;;4.73;3.47;;;;;;;;;;5109802;28;20521;-88
2020/12/07 07:03:21;;;;;;;6.10;3.63;;;;;;;;;;5117404;28;20964;-87
2020/12/07 07:05:47;;;;;;;6.17;2.93;;;;;;;;;;5110654;28;20448;-87
2020/12/07 07:08:13;;;;;;;5.13;3.17;;;;;;;;;;5102584;28;20433;-88
2020/12/07 07:10:39;;;;;;;5.00;3.43;;;;;;;;;;5105658;28;20450;-88
2020/12/07 07:13:05;;;;;;;4.70;3.10;;;;;;;;;;5110632;28;20423;-87
2020/12/07 07:15:31;;;;;;;4.03;3.13;;;;;;;;;;5107232;28;20495;-88
2020/12/07 07:17:57;;;;;;;5.80;3.70;;;;;;;;;;5097534;28;20431;-88
2020/12/07 07:20:23;;;;;;;6.18;4.20;;;;;;;;;;5107427;28;20417;-88
2020/12/07 07:22:49;;;;;;;7.33;3.70;;;;;;;;;;5097286;28;20350;-88
2020/12/07 07:30:24;;;;;;;4.87;3.27;;;;;;;;;;5107422;28;20462;-88
2020/12/07 07:32:55;;;;;;;5.90;3.57;;;;;;;;;;5115981;28;20919;-89
2020/12/07 07:35:27;;;;;;;6.17;3.70;;;;;;;;;;5117574;28;20424;-88
2020/12/07 07:38:08;;;;;;;4.60;3.20;;;;;;;;;;5097866;28;20418;-89
2020/12/07 07:43:53;;;;;;;4.10;2.70;;;;;;;;;;5111700;28;20439;-88
2020/12/07 08:02:03;;;;;;;5.13;3.33;;;;;;;;;;5112197;28;20971;-86
2020/12/07 08:15:47;;;;;;;5.93;4.47;;;;;;;;;;5109797;28;20488;-87
2020/12/07 08:18:19;;;;;;;6.60;3.57;;;;;;;;;;5097545;28;20411;-87
2020/12/07 08:21:01;;;;;;;7.97;4.30;;;;;;;;;;5096739;28;20480;-86
2020/12/07 08:23:44;;;;;;;6.87;3.47;;;;;;;;;;5092918;28;20427;-87
2020/12/07 08:26:18;;;;;;;5.93;3.70;;;;;;;;;;5117866;28;20631;-86
2020/12/07 08:28:48;;;;;;;5.37;3.70;;;;;;;;;;5119423;28;20444;-87
2020/12/07 08:31:23;;;;;;;8.30;4.20;;;;;;;;;;5103901;28;20419;-87
2020/12/07 08:33:59;;;;;;;6.47;4.00;;;;;;;;;;5097369;28;20196;-89
2020/12/07 08:36:26;;;;;;;5.90;3.80;;;;;;;;;;5105918;28;20458;-87
2020/12/07 08:38:52;;;;;;;4.60;3.27;;;;;;;;;;5116417;28;20464;-87
2020/12/07 08:41:24;;;;;;;4.73;4.17;;;;;;;;;;5107535;28;20442;-87
2020/12/07 08:43:52;;;;;;;7.47;4.33;;;;;;;;;;5114740;28;20445;-87
2020/12/07 08:46:19;;;;;;;6.70;4.60;;;;;;;;;;5094236;28;20459;-88
2020/12/07 08:48:46;;;;;;;4.87;3.53;;;;;;;;;;5091726;28;20471;-87
2020/12/07 08:51:13;;;;;;;5.27;3.53;;;;;;;;;;5105682;28;20535;-87
2020/12/07 08:53:52;;;;;;;7.40;4.30;;;;;;;;;;5094585;28;20910;-86
2020/12/07 08:56:18;;;;;;;4.07;3.67;;;;;;;;;;5108611;28;20476;-88
2020/12/07 08:58:44;;;;;;;5.30;4.50;;;;;;;;;;5091496;28;20515;-88
2020/12/07 09:01:36;;;;;;;7.93;3.70;;;;;;;;;;5107100;28;20514;-87
2020/12/07 09:04:04;;;;;;;5.83;3.27;;;;;;;;;;5100816;28;20455;-88
2020/12/07 09:06:30;;;;;;;5.17;3.70;;;;;;;;;;5090288;28;20826;-87
2020/12/07 09:09:01;;;;;;;5.90;4.00;;;;;;;;;;5100270;28;20455;-86
2020/12/07 09:11:30;;;;;;;4.20;3.10;;;;;;;;;;5092741;28;20476;-88
2020/12/07 09:14:06;;;;;;;5.43;3.30;;;;;;;;;;5087701;28;20424;-87
2020/12/07 09:19:26;;;;;;;6.05;3.30;;;;;;;;;;5090952;28;20771;-87
2020/12/07 09:21:52;;;;;;;3.20;2.43;;;;;;;;;;5095129;28;20205;-88
2020/12/07 09:24:26;;;;;;;3.37;2.30;;;;;;;;;;5098725;28;20498;-88
2020/12/07 09:27:10;;;;;;;3.00;2.73;;;;;;;;;;5112490;28;20460;-87
2020/12/07 09:29:40;;;;;;;3.47;2.07;;;;;;;;;;5101692;28;20525;-88
2020/12/07 09:32:07;;;;;;;3.23;2.70;;;;;;;;;;5107066;28;20836;-88
2020/12/07 09:34:33;;;;;;;5.10;2.67;;;;;;;;;;5104341;28;21261;-87
2020/12/07 09:40:17;;;;;;;2.90;2.53;;;;;;;;;;5107350;28;20201;-87
2020/12/07 09:42:46;;;;;;;2.97;1.92;;;;;;;;;;5112124;28;20785;-87
2020/12/07 09:45:14;;;;;;;3.20;2.47;;;;;;;;;;5115284;28;20265;-86
2020/12/07 09:47:42;;;;;;;4.33;2.53;;;;;;;;;;5114386;28;20463;-87
2020/12/07 09:50:22;;;;;;;;;;;;;;;;;;;;;
2020/12/07 09:52:48;;;;;;;4.13;2.20;;;;;;;;;;5108973;28;20447;-87
2020/12/07 09:55:14;;;;;;;2.70;2.00;;;;;;;;;;5095709;28;20763;-86
2020/12/07 09:58:03;;;;;;;3.33;2.63;;;;;;;;;;5110656;28;20411;-87
2020/12/07 10:00:29;;;;;;;3.03;2.30;;;;;;;;;;5103791;28;20447;-87
2020/12/07 10:03:04;;;;;;;3.37;2.50;;;;;;;;;;5107379;28;20455;-88
2020/12/07 10:05:30;;;;;;;2.20;1.80;;;;;;;;;;5110205;28;20491;-88
2020/12/07 10:07:56;;;;;;;3.10;2.13;;;;;;;;;;5115903;28;20447;-88
2020/12/07 10:10:22;;;;;;;2.37;2.07;;;;;;;;;;5118079;28;20462;-87
2020/12/07 10:12:49;;;;;;;3.03;1.67;;;;;;;;;;5113232;28;20914;-88
2020/12/07 10:15:15;;;;;;;2.60;1.93;;;;;;;;;;5116423;28;20559;-87
2020/12/07 10:17:49;;;;;;;7.23;2.40;;;;;;;;;;5120050;28;20411;-88
2020/12/07 10:20:17;;;;;;;2.10;1.77;;;;;;;;;;5095702;28;20440;-88
2020/12/07 10:22:46;;;;;;;3.23;1.83;;;;;;;;;;5113401;28;20470;-88
2020/12/07 10:25:15;;;;;;;3.03;1.90;;;;;;;;;;5118359;28;20427;-86
2020/12/07 10:27:41;;;;;;;3.60;2.10;;;;;;;;;;5095297;28;20458;-88
2020/12/07 10:30:07;;;;;;;2.30;1.80;;;;;;;;;;5115854;28;20485;-88
2020/12/07 10:32:33;;;;;;;2.20;1.70;;;;;;;;;;5113551;28;20415;-89
2020/12/07 10:34:59;;;;;;;2.33;1.63;;;;;;;;;;5096765;28;20427;-88
2020/12/07 10:37:25;;;;;;;1.90;1.57;;;;;;;;;;5094326;28;20407;-89
2020/12/07 10:39:51;;;;;;;2.60;1.80;;;;;;;;;;5099566;28;20448;-87
2020/12/07 10:42:27;;;;;;;;;;;;;;;;;;;;;
2020/12/07 10:44:54;;;;;;;2.57;2.17;;;;;;;;;;5111375;28;20169;-87
2020/12/07 10:47:20;;;;;;;2.67;1.97;;;;;;;;;;5113549;28;20482;-87
2020/12/07 10:49:46;;;;;;;2.73;1.70;;;;;;;;;;5115584;28;20442;-86
2020/12/07 10:52:12;;;;;;;2.10;1.60;;;;;;;;;;5115238;28;20526;-87
2020/12/07 10:54:41;;;;;;;10.83;5.10;;;;;;;;;;5111473;27;20426;-87
2020/12/07 10:57:07;;;;;;;2.90;2.00;;;;;;;;;;5112443;28;20430;-86
2020/12/07 10:59:36;;;;;;;2.00;1.70;;;;;;;;;;5111461;28;21045;-87
2020/12/07 11:02:02;;;;;;;2.50;1.93;;;;;;;;;;5107396;28;20426;-87
2020/12/07 11:04:33;;;;;;;2.10;1.70;;;;;;;;;;5108245;28;20431;-88
2020/12/07 11:07:01;;;;;;;2.57;1.70;;;;;;;;;;5116797;28;20479;-87
2020/12/07 11:12:22;;;;;;;1.83;1.70;;;;;;;;;;5089772;28;20192;-87
2020/12/07 11:14:48;;;;;;;2.17;1.73;;;;;;;;;;5110437;27;20431;-85
2020/12/07 11:17:39;;;;;;;5.37;2.60;;;;;;;;;;5111159;28;20427;-85
2020/12/07 11:20:05;;;;;;;2.10;1.80;;;;;;;;;;5088344;28;20451;-86
2020/12/07 11:22:31;;;;;;;1.80;1.37;;;;;;;;;;5099382;28;20431;-86
2020/12/07 11:24:58;;;;;;;3.80;1.83;;;;;;;;;;5105028;28;20481;-87
2020/12/07 11:30:38;;;;;;;3.07;2.03;;;;;;;;;;5064139;28;20557;-87
2020/12/07 11:33:07;;;;;;;3.43;1.90;;;;;;;;;;5098309;28;20907;-87
2020/12/07 11:35:35;;;;;;;2.87;2.27;;;;;;;;;;5116737;28;20426;-87
2020/12/07 11:42:01;;;;;;;2.85;2.00;;;;;;;;;;5069527;28;20418;-88
2020/12/07 11:44:38;;;;;;;2.73;2.17;;;;;;;;;;5109594;28;20602;-88
2020/12/07 11:50:24;;;;;;;2.40;1.60;;;;;;;;;;5088759;28;20490;-88
2020/12/07 11:53:06;;;;;;;2.40;1.77;;;;;;;;;;5098924;28;20461;-88
2020/12/07 11:55:43;;;;;;;2.70;2.07;;;;;;;;;;5109490;28;20411;-87
2020/12/07 11:58:12;;;;;;;2.93;2.27;;;;;;;;;;5097047;28;20403;-87
2020/12/07 12:00:45;;;;;;;3.90;2.40;;;;;;;;;;5115596;28;20393;-87
2020/12/07 12:03:16;;;;;;;2.77;2.43;;;;;;;;;;5098644;28;20918;-87
2020/12/07 12:05:46;;;;;;;2.27;1.90;;;;;;;;;;5094016;28;20422;-87
2020/12/07 12:08:14;;;;;;;2.40;1.90;;;;;;;;;;5106572;28;20440;-89
2020/12/07 12:10:58;;;;;;;3.87;2.03;;;;;;;;;;5096276;28;20443;-88
2020/12/07 12:13:28;;;;;;;2.90;1.80;;;;;;;;;;5084840;28;20451;-87
2020/12/07 12:15:59;;;;;;;2.90;2.00;;;;;;;;;;5096762;28;20443;-88
2020/12/07 12:18:25;;;;;;;2.90;2.13;;;;;;;;;;5097637;28;20466;-88
2020/12/07 12:20:51;;;;;;;2.77;2.13;;;;;;;;;;5115969;28;20576;-87
2020/12/07 12:23:20;;;;;;;6.57;4.07;;;;;;;;;;5112616;28;20846;-88
2020/12/07 12:25:52;;;;;;;3.70;2.63;;;;;;;;;;5095205;28;20958;-89
2020/12/07 12:28:21;;;;;;;3.00;1.77;;;;;;;;;;5114980;28;20411;-88
2020/12/07 12:30:58;;;;;;;4.07;2.30;;;;;;;;;;5096001;28;20415;-87
2020/12/07 12:33:24;;;;;;;2.50;1.90;;;;;;;;;;5079322;28;20414;-87
2020/12/07 12:35:51;;;;;;;4.37;2.10;;;;;;;;;;5095789;28;20420;-88
2020/12/07 12:38:34;;;;;;;1.80;1.47;;;;;;;;;;5114227;28;20405;-88
2020/12/07 12:41:08;;;;;;;2.20;1.90;;;;;;;;;;5080976;28;20431;-88
2020/12/07 12:46:52;;;;;;;4.90;1.90;;;;;;;;;;5103641;28;20455;-89
2020/12/07 12:49:21;;;;;;;3.27;1.63;;;;;;;;;;5095733;28;20462;-88
2020/12/07 12:51:57;;;;;;;4.23;1.40;;;;;;;;;;5094921;28;20533;-88
2020/12/07 12:54:31;;;;;;;2.17;1.90;;;;;;;;;;5097330;28;20425;-87
2020/12/07 12:57:00;;;;;;;2.40;1.60;;;;;;;;;;5093304;28;20431;-88
2020/12/07 12:59:36;;;;;;;5.07;2.03;;;;;;;;;;5111472;28;20515;-88
2020/12/07 13:02:16;;;;;;;4.63;1.53;;;;;;;;;;5091133;28;20423;-87
2020/12/07 13:05:15;;;;;;;2.43;2.07;;;;;;;;;;5094412;28;20462;-87
2020/12/07 13:07:45;;;;;;;3.80;1.83;;;;;;;;;;5094673;28;20482;-87
2020/12/07 13:10:16;;;;;;;3.00;1.80;;;;;;;;;;5091532;28;20444;-87
2020/12/07 13:12:51;;;;;;;2.03;1.50;;;;;;;;;;5086892;28;20457;-87
2020/12/07 13:15:21;;;;;;;1.90;1.43;;;;;;;;;;5108610;28;20434;-88
2020/12/07 13:17:56;;;;;;;2.40;1.57;;;;;;;;;;5112668;28;20510;-87
2020/12/07 13:21:10;;;;;;;3.23;1.93;;;;;;;;;;5091576;28;20443;-87
2020/12/07 13:30:00;;;;;;;2.30;2.00;;;;;;;;;;5116267;22;20492;-88
2020/12/07 13:32:56;;;;;;;;;;;;;;;;;;;;;
2020/12/07 13:35:33;;;;;;;2.10;1.40;;;;;;;;;;5061670;28;20425;-88
2020/12/07 13:38:31;;;;;;;;;;;;;;;;;;;;;
2020/12/07 13:41:35;;;;;;;3.87;2.03;;;;;;;;;;5038849;28;20457;-87
2020/12/07 13:44:01;;;;;;;5.00;3.13;;;;;;;;;;5029052;28;21016;-87
2020/12/07 13:46:36;;;;;;;2.03;1.43;;;;;;;;;;5030497;28;20446;-87
2020/12/07 13:49:07;;;;;;;3.63;1.83;;;;;;;;;;5067733;22;20845;-86
2020/12/07 13:51:42;;;;;;;4.33;1.60;;;;;;;;;;5070531;28;20421;-88
2020/12/07 13:54:08;;;;;;;2.80;1.83;;;;;;;;;;5063474;28;20452;-88
2020/12/07 13:56:41;;;;;;;1.83;1.43;;;;;;;;;;5078443;28;20497;-87
2020/12/07 13:59:07;;;;;;;3.20;1.60;;;;;;;;;;5062137;28;20529;-87
2020/12/07 14:01:33;;;;;;;3.90;1.80;;;;;;;;;;5050248;28;20425;-87
2020/12/07 14:04:11;;;;;;;6.27;2.30;;;;;;;;;;5050449;28;20422;-87
2020/12/07 14:06:46;;;;;;;5.20;1.50;;;;;;;;;;5057330;28;20468;-87
2020/12/07 14:09:19;;;;;;;1.70;1.10;;;;;;;;;;5054647;28;20457;-87
2020/12/07 14:12:11;;;;;;;3.67;1.37;;;;;;;;;;5052884;28;20782;-88
2020/12/07 14:21:13;;;;;;;2.33;1.40;;;;;;;;;;5030047;28;20431;-88
2020/12/07 14:23:53;;;;;;;2.37;1.30;;;;;;;;;;5057207;28;20413;-87
2020/12/07 14:40:03;;;;;;;2.23;1.17;;;;;;;;;;5057704;28;21002;-85
2020/12/07 14:42:30;;;;;;;5.23;1.90;;;;;;;;;;5051144;28;20480;-87
2020/12/07 14:44:57;;;;;;;1.60;1.20;;;;;;;;;;5054622;28;20563;-86
2020/12/07 14:47:26;;;;;;;2.37;1.67;;;;;;;;;;5049878;28;21022;-86
2020/12/07 14:50:35;;;;;;;2.47;1.30;;;;;;;;;;5045972;28;20466;-86
2020/12/07 14:53:08;;;;;;;1.90;1.30;;;;;;;;;;5054942;28;20886;-88
2020/12/07 14:55:42;;;;;;;1.40;1.00;;;;;;;;;;5058035;28;20458;-87
2020/12/07 15:05:51;;;;;;;2.20;1.33;;;;;;;;;;5051702;28;20413;-88
2020/12/07 15:16:19;;;;;;;2.40;1.73;;;;;;;;;;5056682;28;20432;-88
2020/12/07 15:18:45;;;;;;;3.70;1.60;;;;;;;;;;5055016;28;20464;-87
2020/12/07 15:21:20;;;;;;;3.73;2.63;;;;;;;;;;5047623;28;20432;-89
2020/12/07 15:23:46;;;;;;;3.00;1.70;;;;;;;;;;5057743;28;20425;-88
2020/12/07 15:26:12;;;;;;;3.60;2.30;;;;;;;;;;5057158;28;20485;-88
2020/12/07 15:28:38;;;;;;;2.13;1.43;;;;;;;;;;5055834;28;20758;-88
2020/12/07 15:31:06;;;;;;;2.80;1.50;;;;;;;;;;5051458;28;20449;-88
2020/12/07 15:33:36;;;;;;;6.63;2.60;;;;;;;;;;5055014;28;20426;-88
2020/12/07 15:36:06;;;;;;;2.27;1.80;;;;;;;;;;5034969;28;20434;-87
2020/12/07 15:38:33;;;;;;;4.03;2.57;;;;;;;;;;5049800;28;20427;-88
2020/12/07 15:40:59;;;;;;;1.93;1.43;;;;;;;;;;5052451;28;20429;-88
2020/12/07 15:43:33;;;;;;;4.90;2.27;;;;;;;;;;5046071;28;20422;-86
2020/12/07 15:45:59;;;;;;;3.93;2.50;;;;;;;;;;5057155;28;20465;-86
2020/12/07 15:48:27;;;;;;;5.00;2.30;;;;;;;;;;5050855;28;20520;-86
2020/12/07 15:50:56;;;;;;;3.20;1.43;;;;;;;;;;5059003;28;20449;-87
2020/12/07 15:53:22;;;;;;;4.23;2.50;;;;;;;;;;5054273;28;20425;-86
2020/12/07 15:55:50;;;;;;;3.93;2.20;;;;;;;;;;5050267;28;20410;-87
2020/12/07 15:58:19;;;;;;;3.70;1.77;;;;;;;;;;5056263;28;20454;-87
2020/12/07 16:00:45;;;;;;;2.40;1.80;;;;;;;;;;5056606;28;20450;-87
2020/12/07 16:03:12;;;;;;;2.73;2.20;;;;;;;;;;5067768;28;20457;-87
2020/12/07 16:05:39;;;;;;;5.00;2.17;;;;;;;;;;5055853;28;20517;-86
2020/12/07 16:08:05;;;;;;;3.47;2.03;;;;;;;;;;5055516;28;20461;-86
2020/12/07 16:10:31;;;;;;;4.00;1.97;;;;;;;;;;5057560;28;20418;-86
2020/12/07 16:12:57;;;;;;;2.63;1.50;;;;;;;;;;5052944;28;20918;-86
2020/12/07 16:15:23;;;;;;;4.90;2.43;;;;;;;;;;5053972;28;20418;-85
2020/12/07 16:17:49;;;;;;;2.33;2.13;;;;;;;;;;5049435;28;20483;-86
2020/12/07 16:20:15;;;;;;;3.40;1.43;;;;;;;;;;5056410;28;20795;-87
2020/12/07 16:22:41;;;;;;;6.60;1.93;;;;;;;;;;5053155;28;20445;-85
2020/12/07 16:25:08;;;;;;;2.37;1.87;;;;;;;;;;5054617;28;20426;-86
2020/12/07 16:27:34;;;;;;;3.47;1.70;;;;;;;;;;5069772;28;20450;-86
2020/12/07 16:30:00;;;;;;;3.60;1.70;;;;;;;;;;5054258;28;20474;-86
2020/12/07 16:32:36;;;;;;;2.30;1.70;;;;;;;;;;5060581;28;20722;-86
2020/12/07 16:35:06;;;;;;;2.40;2.20;;;;;;;;;;5059319;28;20397;-86
2020/12/07 16:37:35;;;;;;;4.60;2.67;;;;;;;;;;5058181;28;20425;-86
2020/12/07 16:40:02;;;;;;;4.50;2.10;;;;;;;;;;5054744;28;20450;-87